createdAt,value
2022-12-24T00:00:19.335Z,6.20
2022-12-24T00:02:47.077Z,4.80
2022-12-24T00:05:14.978Z,5.37
2022-12-24T00:07:42.654Z,4.17
2022-12-24T00:10:11.556Z,5.37
2022-12-24T00:12:39.306Z,5.30
2022-12-24T00:15:09.832Z,4.73
2022-12-24T00:17:37.557Z,6.67
2022-12-24T00:20:06.171Z,5.10
2022-12-24T00:22:33.872Z,5.77
2022-12-24T00:25:01.634Z,5.40
2022-12-24T00:27:29.323Z,4.10
2022-12-24T00:29:57.021Z,4.13
2022-12-24T00:32:26.040Z,4.47
2022-12-24T00:34:53.688Z,4.23
2022-12-24T00:37:21.361Z,5.70
2022-12-24T00:39:49.000Z,5.03
2022-12-24T00:42:16.696Z,5.67
2022-12-24T00:44:44.379Z,5.10
2022-12-24T00:47:12.384Z,4.60
2022-12-24T00:49:41.456Z,4.90
2022-12-24T00:52:09.144Z,6.57
2022-12-24T00:54:36.784Z,5.13
2022-12-24T00:57:04.620Z,4.77
2022-12-24T00:59:32.264Z,5.83
2022-12-24T01:02:00.072Z,6.30
2022-12-24T01:04:45.359Z,5.43
2022-12-24T01:07:14.385Z,8.40
2022-12-24T01:09:42.034Z,6.13
2022-12-24T01:12:09.694Z,6.80
2022-12-24T01:14:38.356Z,5.70
2022-12-24T01:17:06.141Z,6.03
2022-12-24T01:19:34.441Z,6.23
2022-12-24T01:22:02.120Z,5.47
2022-12-24T01:24:31.177Z,5.97
2022-12-24T01:26:58.839Z,5.30
2022-12-24T01:29:26.494Z,4.57
2022-12-24T01:31:54.129Z,6.73
2022-12-24T01:34:21.821Z,5.43
2022-12-24T01:36:49.474Z,4.30
2022-12-24T01:39:17.169Z,4.10
2022-12-24T01:42:03.805Z,3.57
2022-12-24T01:44:37.097Z,4.90
2022-12-24T01:47:10.192Z,4.47
2022-12-24T01:49:40.379Z,6.23
2022-12-24T01:52:11.747Z,5.80
2022-12-24T01:54:43.211Z,5.60
2022-12-24T01:57:16.937Z,5.17
2022-12-24T01:59:47.103Z,4.47
2022-12-24T02:02:15.197Z,5.17
2022-12-24T02:04:47.594Z,6.67
2022-12-24T02:07:15.371Z,4.40
2022-12-24T02:09:43.675Z,5.47
2022-12-24T02:12:12.686Z,6.30
2022-12-24T02:14:40.416Z,5.90
2022-12-24T02:17:19.442Z,8.23
2022-12-24T02:20:12.815Z,8.10
2022-12-24T02:22:53.593Z,7.30
2022-12-24T02:25:33.985Z,8.40
2022-12-24T02:28:14.327Z,7.60
2022-12-24T02:30:49.545Z,6.63
2022-12-24T02:33:27.070Z,6.60
2022-12-24T02:36:05.142Z,6.53
2022-12-24T02:38:38.241Z,7.40
2022-12-24T02:41:10.277Z,9.37
2022-12-24T02:43:40.816Z,8.80
2022-12-24T02:46:13.936Z,8.57
2022-12-24T02:48:44.286Z,6.60
2022-12-24T02:51:12.954Z,6.83
2022-12-24T02:53:41.344Z,7.07
2022-12-24T02:56:38.244Z,7.60
2022-12-24T02:59:36.490Z,7.57
2022-12-24T03:02:19.504Z,7.03
2022-12-24T03:04:53.643Z,6.80
2022-12-24T03:07:26.319Z,5.77
2022-12-24T03:10:04.135Z,8.80
2022-12-24T03:12:34.437Z,10.53
2022-12-24T03:15:03.192Z,10.63
2022-12-24T03:17:35.339Z,13.00
2022-12-24T03:20:03.778Z,9.90
2022-12-24T03:22:32.316Z,7.93
2022-12-24T03:25:00.025Z,14.33
2022-12-24T03:27:30.065Z,13.23
2022-12-24T03:29:58.460Z,11.53
2022-12-24T03:32:32.180Z,11.37
2022-12-24T03:35:01.395Z,16.70
2022-12-24T03:37:29.126Z,15.93
2022-12-24T03:39:56.787Z,13.50
2022-12-24T03:42:24.444Z,20.93
2022-12-24T03:44:52.097Z,11.93
2022-12-24T03:47:19.778Z,12.57
2022-12-24T03:49:47.449Z,11.33
2022-12-24T03:52:16.481Z,10.77
2022-12-24T03:54:44.155Z,12.17
2022-12-24T03:57:11.888Z,13.30
2022-12-24T03:59:39.580Z,10.87
2022-12-24T04:02:07.657Z,12.53
2022-12-24T04:04:36.821Z,10.70
2022-12-24T04:07:04.530Z,13.60
2022-12-24T04:09:34.265Z,13.93
2022-12-24T04:12:01.989Z,13.07
2022-12-24T04:14:29.659Z,12.57
2022-12-24T04:16:57.399Z,13.47
2022-12-24T04:19:25.076Z,12.17
2022-12-24T04:21:52.736Z,12.37
2022-12-24T04:24:20.405Z,9.63
2022-12-24T04:26:49.414Z,12.77
2022-12-24T04:29:17.148Z,12.00
2022-12-24T04:31:44.926Z,11.30
2022-12-24T04:34:12.655Z,11.97
2022-12-24T04:36:40.362Z,9.27
2022-12-24T04:39:08.129Z,13.17
2022-12-24T04:41:35.821Z,11.40
2022-12-24T04:44:04.926Z,14.03
2022-12-24T04:46:33.005Z,10.33
2022-12-24T04:49:00.780Z,14.73
2022-12-24T04:51:29.435Z,12.20
2022-12-24T04:53:57.992Z,11.77
2022-12-24T04:56:27.453Z,15.70
2022-12-24T04:58:55.808Z,14.73
2022-12-24T05:01:26.148Z,14.50
2022-12-24T05:03:54.811Z,15.63
2022-12-24T05:06:26.278Z,19.93
2022-12-24T05:08:55.815Z,10.87
2022-12-24T05:11:24.153Z,12.30
2022-12-24T05:13:51.991Z,14.40
2022-12-24T05:16:21.713Z,13.70
2022-12-24T05:18:51.198Z,11.53
2022-12-24T05:21:21.411Z,10.67
2022-12-24T05:24:06.934Z,9.93
2022-12-24T05:26:38.708Z,12.17
2022-12-24T05:29:07.783Z,8.60
2022-12-24T05:31:36.216Z,11.57
2022-12-24T05:34:05.262Z,13.37
2022-12-24T05:36:33.408Z,14.27
2022-12-24T05:39:01.605Z,13.80
2022-12-24T05:41:29.380Z,10.03
2022-12-24T05:43:57.217Z,9.73
2022-12-24T05:46:26.369Z,12.37
2022-12-24T05:48:54.453Z,11.20
2022-12-24T05:51:24.597Z,7.70
2022-12-24T05:53:52.827Z,9.63
2022-12-24T05:56:22.768Z,12.00
2022-12-24T05:58:52.104Z,11.70
2022-12-24T06:01:20.497Z,10.80
2022-12-24T06:03:49.626Z,16.93
2022-12-24T06:06:20.768Z,17.73
2022-12-24T06:08:50.799Z,12.47
2022-12-24T06:11:23.207Z,17.47
2022-12-24T06:13:51.119Z,15.77
2022-12-24T06:16:20.469Z,14.73
2022-12-24T06:18:48.466Z,12.87
2022-12-24T06:21:17.071Z,19.23
2022-12-24T06:23:46.103Z,12.60
2022-12-24T06:26:17.373Z,19.43
2022-12-24T06:28:45.952Z,18.17
2022-12-24T06:31:16.489Z,21.17
2022-12-24T06:33:44.622Z,15.53
2022-12-24T06:36:17.684Z,18.70
2022-12-24T06:38:45.968Z,16.17
2022-12-24T06:41:15.552Z,19.40
2022-12-24T06:43:45.982Z,15.43
2022-12-24T06:46:14.698Z,22.77
2022-12-24T06:48:43.309Z,19.30
2022-12-24T06:51:11.025Z,17.13
2022-12-24T06:53:38.690Z,15.47
2022-12-24T06:56:08.019Z,21.40
2022-12-24T06:58:37.521Z,15.07
2022-12-24T07:01:08.194Z,19.47
2022-12-24T07:03:36.231Z,15.33
2022-12-24T07:06:04.063Z,19.60
2022-12-24T07:08:33.542Z,19.83
2022-12-24T07:11:01.621Z,19.50
2022-12-24T07:13:29.749Z,22.70
2022-12-24T07:16:03.245Z,20.13
2022-12-24T07:18:31.048Z,19.83
2022-12-24T07:20:58.991Z,15.03
2022-12-24T07:23:26.699Z,16.43
2022-12-24T07:25:54.353Z,15.03
2022-12-24T07:28:27.489Z,19.07
2022-12-24T07:30:55.855Z,19.67
2022-12-24T07:33:24.901Z,17.87
2022-12-24T07:35:59.882Z,21.93
2022-12-24T07:38:27.917Z,17.77
2022-12-24T07:40:55.641Z,14.77
2022-12-24T07:43:24.060Z,14.40
2022-12-24T07:45:51.893Z,18.97
2022-12-24T07:48:19.573Z,13.00
2022-12-24T07:50:50.118Z,11.50
2022-12-24T07:53:17.847Z,15.90
2022-12-24T07:55:45.835Z,15.90
2022-12-24T07:58:13.629Z,21.33
2022-12-24T08:00:41.346Z,16.73
2022-12-24T08:03:09.061Z,17.20
2022-12-24T08:05:37.403Z,15.77
2022-12-24T08:08:06.404Z,19.47
2022-12-24T08:10:34.059Z,15.17
2022-12-24T08:13:01.754Z,14.43
2022-12-24T08:15:29.435Z,22.60
2022-12-24T08:17:57.383Z,17.93
2022-12-24T08:20:25.105Z,19.47
2022-12-24T08:22:53.717Z,14.03
2022-12-24T08:25:22.728Z,15.70
2022-12-24T08:27:50.451Z,14.43
2022-12-24T08:30:21.331Z,16.87
2022-12-24T08:32:49.456Z,12.50
2022-12-24T08:35:17.366Z,16.30
2022-12-24T08:37:45.066Z,14.93
2022-12-24T08:40:13.884Z,13.30
2022-12-24T08:42:43.029Z,16.23
2022-12-24T08:45:11.850Z,19.97
2022-12-24T08:47:39.731Z,17.67
2022-12-24T08:50:08.869Z,20.30
2022-12-24T08:52:36.977Z,25.17
2022-12-24T08:55:05.714Z,21.57
2022-12-24T08:57:36.437Z,19.23
2022-12-24T09:00:07.710Z,19.10
2022-12-24T09:02:35.647Z,18.83
2022-12-24T09:05:03.497Z,20.27
2022-12-24T09:07:31.517Z,17.43
2022-12-24T09:09:59.281Z,16.13
2022-12-24T09:12:26.954Z,21.43
2022-12-24T09:15:01.281Z,13.83
2022-12-24T09:17:32.277Z,20.00
2022-12-24T09:19:59.954Z,19.50
2022-12-24T09:22:27.806Z,18.43
2022-12-24T09:24:56.008Z,19.00
2022-12-24T09:27:23.765Z,22.17
2022-12-24T09:29:51.469Z,22.60
2022-12-24T09:32:19.947Z,32.13
2022-12-24T09:34:49.275Z,26.50
2022-12-24T09:37:17.120Z,24.03
2022-12-24T09:39:44.952Z,26.13
2022-12-24T09:42:24.900Z,20.77
2022-12-24T09:44:59.256Z,21.00
2022-12-24T09:47:32.838Z,22.27
2022-12-24T09:50:05.545Z,23.13
2022-12-24T09:52:37.536Z,24.87
2022-12-24T09:55:16.588Z,18.00
2022-12-24T09:57:45.933Z,21.73
2022-12-24T10:00:21.647Z,25.73
2022-12-24T10:02:49.437Z,20.00
2022-12-24T10:05:35.991Z,18.20
2022-12-24T10:08:11.289Z,21.53
2022-12-24T10:10:47.552Z,20.67
2022-12-24T10:13:22.047Z,26.63
2022-12-24T10:15:56.039Z,20.33
2022-12-24T10:18:35.277Z,27.67
2022-12-24T10:21:13.266Z,30.10
2022-12-24T10:23:47.573Z,23.23
2022-12-24T10:26:21.112Z,19.20
2022-12-24T10:28:54.476Z,26.93
2022-12-24T10:31:26.786Z,16.07
2022-12-24T10:33:59.126Z,22.60
2022-12-24T10:36:30.508Z,21.23
2022-12-24T10:38:58.860Z,17.67
2022-12-24T10:41:28.772Z,26.13
2022-12-24T10:43:57.318Z,27.67
2022-12-24T10:46:32.497Z,25.33
2022-12-24T10:49:02.841Z,27.10
2022-12-24T10:51:40.196Z,25.10
2022-12-24T10:54:13.239Z,24.47
2022-12-24T10:56:42.975Z,20.60
2022-12-24T10:59:25.669Z,27.73
2022-12-24T11:01:54.160Z,19.97
2022-12-24T11:04:23.607Z,19.43
2022-12-24T11:06:57.764Z,18.93
2022-12-24T11:09:28.205Z,15.83
2022-12-24T11:11:57.312Z,12.70
2022-12-24T11:14:26.392Z,20.77
2022-12-24T11:16:55.597Z,11.90
2022-12-24T11:19:32.291Z,15.63
2022-12-24T11:22:04.629Z,11.10
2022-12-24T11:24:34.756Z,11.37
2022-12-24T11:27:29.473Z,12.90
2022-12-24T11:30:21.593Z,12.10
2022-12-24T11:32:51.351Z,10.30
2022-12-24T11:35:21.613Z,11.87
2022-12-24T11:37:50.986Z,13.00
2022-12-24T11:40:26.582Z,14.73
2022-12-24T11:43:01.333Z,14.97
2022-12-24T11:45:31.057Z,9.77
2022-12-24T11:47:59.722Z,9.60
2022-12-24T11:50:30.142Z,11.60
2022-12-24T11:53:04.530Z,12.00
2022-12-24T11:55:42.256Z,14.33
2022-12-24T11:58:20.942Z,14.13
2022-12-24T12:00:51.467Z,12.13
2022-12-24T12:03:31.477Z,10.50
2022-12-24T12:06:02.656Z,13.13
2022-12-24T12:08:32.359Z,10.23
2022-12-24T12:11:00.988Z,10.93
2022-12-24T12:13:33.240Z,12.20
2022-12-24T12:16:15.625Z,10.97
2022-12-24T12:18:50.295Z,12.27
2022-12-24T12:21:21.002Z,13.33
2022-12-24T12:23:53.787Z,8.33
2022-12-24T12:26:25.688Z,10.17
2022-12-24T12:28:57.528Z,12.47
2022-12-24T12:31:28.682Z,7.93
2022-12-24T12:34:00.203Z,7.80
2022-12-24T12:36:33.538Z,7.70
2022-12-24T12:39:02.820Z,10.30
2022-12-24T12:41:47.004Z,9.60
2022-12-24T12:44:31.025Z,12.37
2022-12-24T12:47:25.701Z,11.80
2022-12-24T12:50:01.181Z,7.87
2022-12-24T12:52:44.350Z,10.43
2022-12-24T12:55:28.278Z,8.10
2022-12-24T12:58:01.792Z,9.17
2022-12-24T13:00:32.182Z,9.37
2022-12-24T13:03:44.400Z,10.27
2022-12-24T13:06:38.285Z,10.03
2022-12-24T13:09:42.076Z,5.97
2022-12-24T13:12:26.003Z,8.00
2022-12-24T13:15:22.817Z,10.37
2022-12-24T13:18:10.633Z,9.70
2022-12-24T13:20:47.433Z,9.57
2022-12-24T13:23:19.826Z,9.07
2022-12-24T13:25:49.189Z,7.57
2022-12-24T13:28:34.023Z,7.10
2022-12-24T13:31:28.074Z,9.50
2022-12-24T13:33:58.031Z,12.43
2022-12-24T13:36:26.094Z,11.40
2022-12-24T13:38:54.771Z,9.17
2022-12-24T13:41:59.140Z,12.33
2022-12-24T13:44:36.024Z,10.30
2022-12-24T13:47:29.982Z,10.60
2022-12-24T13:50:22.031Z,13.20
2022-12-24T13:52:53.314Z,21.40
2022-12-24T13:55:21.649Z,2.53
2022-12-24T13:57:58.983Z,4.00
2022-12-24T14:00:42.739Z,6.13
2022-12-24T14:03:29.143Z,3.43
2022-12-24T14:06:00.450Z,3.20
2022-12-24T14:08:42.053Z,2.80
2022-12-24T14:11:13.484Z,4.00
2022-12-24T14:14:10.994Z,4.93
2022-12-24T14:16:50.512Z,4.27
2022-12-24T14:19:22.276Z,2.93
2022-12-24T14:21:59.141Z,2.20
2022-12-24T14:24:32.668Z,2.70
2022-12-24T14:27:09.289Z,2.50
2022-12-24T14:29:45.754Z,2.47
2022-12-24T14:32:17.566Z,3.90
2022-12-24T14:34:46.016Z,4.83
2022-12-24T14:37:14.734Z,7.20
2022-12-24T14:39:47.873Z,3.83
2022-12-24T14:42:31.108Z,3.97
2022-12-24T14:45:08.425Z,8.67
2022-12-24T14:47:45.831Z,7.37
2022-12-24T14:50:46.650Z,5.23
2022-12-24T14:53:26.418Z,7.07
2022-12-24T14:55:54.100Z,6.43
2022-12-24T14:58:29.776Z,5.87
2022-12-24T15:00:59.611Z,7.93
2022-12-24T15:03:30.621Z,8.67
2022-12-24T15:06:01.212Z,6.57
2022-12-24T15:08:32.066Z,5.43
2022-12-24T15:11:03.962Z,6.80
2022-12-24T15:13:37.086Z,6.93
2022-12-24T15:16:07.369Z,4.43
2022-12-24T15:18:39.407Z,7.73
2022-12-24T15:21:15.178Z,6.20
2022-12-24T15:23:49.252Z,9.53
2022-12-24T15:26:24.248Z,6.67
2022-12-24T15:28:58.273Z,8.83
2022-12-24T15:31:31.130Z,10.83
2022-12-24T15:34:01.374Z,10.77
2022-12-24T15:36:32.270Z,11.10
2022-12-24T15:39:03.198Z,13.90
2022-12-24T15:41:37.935Z,10.67
2022-12-24T15:44:06.037Z,12.00
2022-12-24T15:46:34.160Z,11.03
2022-12-24T15:49:04.144Z,10.20
2022-12-24T15:51:34.514Z,12.60
2022-12-24T15:54:12.025Z,9.53
2022-12-24T15:56:43.811Z,13.70
2022-12-24T15:59:26.806Z,16.70
2022-12-24T16:01:54.888Z,21.93
2022-12-24T16:04:26.307Z,16.30
2022-12-24T16:06:58.732Z,17.87
2022-12-24T16:09:47.119Z,13.73
2022-12-24T16:12:18.201Z,15.77
2022-12-24T16:14:52.241Z,12.70
2022-12-24T16:17:22.760Z,19.97
2022-12-24T16:19:54.942Z,23.27
2022-12-24T16:22:35.117Z,26.77
2022-12-24T16:25:16.532Z,26.43
2022-12-24T16:27:44.335Z,34.27
2022-12-24T16:30:13.253Z,24.97
2022-12-24T16:32:42.034Z,24.30
2022-12-24T16:35:21.583Z,22.77
2022-12-24T16:37:49.256Z,24.37
2022-12-24T16:40:23.327Z,21.90
2022-12-24T16:43:12.019Z,23.87
2022-12-24T16:45:39.779Z,23.97
2022-12-24T16:48:08.129Z,20.60
2022-12-24T16:50:37.417Z,19.07
2022-12-24T16:53:05.128Z,20.50
2022-12-24T16:55:32.831Z,25.40
2022-12-24T16:58:00.567Z,19.83
2022-12-24T17:00:28.521Z,29.80
2022-12-24T17:02:56.733Z,21.73
2022-12-24T17:05:24.824Z,19.80
2022-12-24T17:07:53.893Z,23.30
2022-12-24T17:10:21.578Z,15.70
2022-12-24T17:12:49.258Z,19.63
2022-12-24T17:15:17.111Z,16.20
2022-12-24T17:17:44.833Z,17.80
2022-12-24T17:20:16.696Z,23.17
2022-12-24T17:22:46.757Z,18.97
2022-12-24T17:25:15.979Z,14.73
2022-12-24T17:27:43.805Z,23.20
2022-12-24T17:30:12.067Z,17.60
2022-12-24T17:32:39.949Z,18.00
2022-12-24T17:35:09.355Z,19.83
2022-12-24T17:37:37.070Z,17.17
2022-12-24T17:40:05.569Z,20.80
2022-12-24T17:42:34.627Z,21.40
2022-12-24T17:45:02.318Z,24.83
2022-12-24T17:47:39.862Z,19.20
2022-12-24T17:50:27.880Z,18.80
2022-12-24T17:53:01.542Z,19.17
2022-12-24T17:55:34.688Z,20.13
2022-12-24T17:58:16.989Z,18.07
2022-12-24T18:00:56.814Z,19.53
2022-12-24T18:03:28.972Z,24.03
2022-12-24T18:06:06.080Z,19.93
2022-12-24T18:08:40.388Z,24.10
2022-12-24T18:11:20.218Z,24.67
2022-12-24T18:14:07.776Z,22.40
2022-12-24T18:16:49.853Z,25.70
2022-12-24T18:19:33.934Z,28.33
2022-12-24T18:22:10.536Z,22.47
2022-12-24T18:24:46.310Z,21.10
2022-12-24T18:27:22.921Z,16.90
2022-12-24T18:30:27.590Z,20.47
2022-12-24T18:33:18.572Z,13.53
2022-12-24T18:36:00.938Z,17.00
2022-12-24T18:38:36.030Z,25.83
2022-12-24T18:41:30.965Z,19.70
2022-12-24T18:44:25.923Z,26.00
2022-12-24T18:47:38.278Z,20.10
2022-12-24T18:51:14.465Z,24.77
2022-12-24T18:54:23.971Z,22.27
2022-12-24T18:57:00.500Z,17.90
2022-12-24T18:59:46.868Z,17.23
2022-12-24T19:02:40.824Z,22.30
2022-12-24T19:05:25.568Z,22.67
2022-12-24T19:08:22.267Z,17.50
2022-12-24T19:11:15.718Z,14.13
2022-12-24T19:13:56.673Z,15.50
2022-12-24T19:16:50.343Z,16.20
2022-12-24T19:19:34.201Z,25.37
2022-12-24T19:22:12.164Z,27.57
2022-12-24T19:24:40.384Z,18.73
2022-12-24T19:27:14.938Z,27.93
2022-12-24T19:29:56.486Z,19.13
2022-12-24T19:32:33.467Z,20.07
2022-12-24T19:35:30.807Z,23.13
2022-12-24T19:38:13.546Z,23.63
2022-12-24T19:40:57.153Z,22.63
2022-12-24T19:44:02.188Z,16.63
2022-12-24T19:46:38.378Z,22.43
2022-12-24T19:49:25.419Z,22.93
2022-12-24T19:53:12.084Z,28.43
2022-12-24T19:56:04.427Z,31.47
2022-12-24T19:58:41.595Z,33.60
2022-12-24T20:01:17.278Z,29.13
2022-12-24T20:03:59.723Z,28.93
2022-12-24T20:06:32.340Z,28.90
2022-12-24T20:09:14.221Z,28.43
2022-12-24T20:11:54.802Z,23.40
2022-12-24T20:14:36.713Z,24.13
2022-12-24T20:17:14.422Z,20.97
2022-12-24T20:19:48.118Z,19.50
2022-12-24T20:22:18.548Z,27.57
2022-12-24T20:24:46.784Z,36.90
2022-12-24T20:27:29.823Z,37.53
2022-12-24T20:29:57.911Z,34.73
2022-12-24T20:32:30.499Z,37.43
2022-12-24T20:34:58.987Z,28.70
2022-12-24T20:37:27.328Z,26.87
2022-12-24T20:39:55.437Z,24.60
2022-12-24T20:42:25.007Z,23.37
2022-12-24T20:44:55.747Z,25.13
2022-12-24T20:47:27.315Z,27.87
2022-12-24T20:49:56.003Z,22.27
2022-12-24T20:52:24.436Z,32.47
2022-12-24T20:54:55.397Z,24.77
2022-12-24T20:57:31.440Z,29.87
2022-12-24T21:00:17.182Z,25.27
2022-12-24T21:02:49.966Z,23.07
2022-12-24T21:05:21.560Z,22.43
2022-12-24T21:11:10.295Z,26.03
2022-12-24T21:13:39.506Z,32.13
2022-12-24T21:16:11.116Z,38.03
2022-12-24T21:18:42.474Z,31.67
2022-12-24T21:21:33.964Z,22.47
2022-12-24T21:24:13.584Z,26.93
2022-12-24T21:26:44.163Z,18.23
2022-12-24T21:29:28.128Z,20.47
2022-12-24T21:32:10.104Z,17.83
2022-12-24T21:34:43.135Z,18.13
2022-12-24T21:37:11.420Z,20.20
2022-12-24T21:39:41.878Z,26.33
2022-12-24T21:42:10.147Z,18.67
2022-12-24T21:44:39.815Z,21.83
2022-12-24T21:47:46.098Z,16.80
2022-12-24T21:50:32.529Z,20.80
2022-12-24T21:53:14.565Z,16.13
2022-12-24T21:55:42.856Z,14.33
2022-12-24T21:58:09.812Z,14.53
2022-12-24T22:00:39.253Z,19.37
2022-12-24T22:03:07.627Z,19.70
2022-12-24T22:05:36.412Z,16.93
2022-12-24T22:08:22.193Z,12.33
2022-12-24T22:11:07.471Z,14.73
2022-12-24T22:13:35.687Z,19.13
2022-12-24T22:16:05.441Z,20.60
2022-12-24T22:18:33.747Z,24.10
2022-12-24T22:21:06.112Z,19.07
2022-12-24T22:23:42.073Z,24.17
2022-12-24T22:26:14.997Z,19.70
2022-12-24T22:28:43.300Z,26.20
2022-12-24T22:31:19.566Z,21.03
2022-12-24T22:33:48.101Z,20.67
2022-12-24T22:36:16.225Z,21.67
2022-12-24T22:38:44.699Z,25.47
2022-12-24T22:41:14.918Z,26.43
2022-12-24T22:43:47.055Z,19.23
2022-12-24T22:46:15.446Z,23.97
2022-12-24T22:48:48.662Z,20.07
2022-12-24T22:51:26.360Z,20.07
2022-12-24T22:53:59.812Z,21.13
2022-12-24T22:56:43.127Z,21.67
2022-12-24T22:59:34.512Z,23.20
2022-12-24T23:02:06.969Z,19.33
2022-12-24T23:04:50.057Z,19.90
2022-12-24T23:07:25.187Z,21.33
2022-12-24T23:10:12.108Z,23.37
2022-12-24T23:12:58.018Z,22.33
2022-12-24T23:15:26.373Z,24.07
2022-12-24T23:17:58.263Z,21.90
2022-12-24T23:20:28.694Z,21.57
2022-12-24T23:22:56.966Z,16.53
2022-12-24T23:25:27.013Z,25.07
2022-12-24T23:28:03.128Z,20.57
2022-12-24T23:30:37.033Z,20.27
2022-12-24T23:33:17.502Z,17.83
2022-12-24T23:36:30.727Z,21.63
2022-12-24T23:39:12.897Z,19.97
2022-12-24T23:42:10.948Z,19.20
2022-12-24T23:45:05.836Z,18.73
2022-12-24T23:47:51.623Z,22.20
2022-12-24T23:50:46.630Z,21.03
2022-12-24T23:53:29.004Z,17.60
2022-12-24T23:56:14.175Z,13.17
2022-12-24T23:59:07.730Z,21.20
